Station APCF1 - 8728690 - Apalachicola, FL Image indicating link to RSS feed of recent meteorological observations for station APCF1


Conditions at APCF1 as of
(1:00 pm EDT)
1700 GMT on 09/02/2026:
     

Click on the graph icon in the table below to see a time series plot of the last five days of that observation.

5-day plot - Wind Direction Wind Direction (WDIR): SE ( 130 deg true )
5-day plot - Wind Speed Wind Speed (WSPD): 5.1 kts
5-day plot - Wind Gust Wind Gust (GST): 7.0 kts
5-day plot - Atmospheric Pressure Atmospheric Pressure (PRES):30.05 in
5-day plot - Pressure Tendency Pressure Tendency (PTDY):-0.01 in ( Falling )
5-day plot - Air Temperature Air Temperature (ATMP): 85.6 °F
5-day plot - Water Temperature Water Temperature (WTMP): 86.7 °F
5-day plot - Wind Speed at 10 Meters Wind Speed at 10 meters (WSPD10M): 5.8 kts
5-day plot - Wind Speed at 20 Meters Wind Speed at 20 meters (WSPD20M): 5.8 kts
5-day plot -  Wind Speed, Wind Gust and Atmospheric Pressure Combined plot of Wind Speed, Gust, and Air Pressure
NOS Water Level Observation Network Water Level
Previous observations
TIME
(EDT)
5-day plot - Wind Direction
WDIR
 
5-day plot - Wind Speed
WSPD
kts
5-day plot - Wind Gust
GST
kts
5-day plot - Wave Height
WVHT
ft
5-day plot - Dominant Wave Period
DPD
sec
5-day plot - Average Wave Period
APD
sec
5-day plot - Mean Wave Direction
MWD
 
5-day plot - Atmospheric Pressure
PRES
in
5-day plot - Pressure Tendency
PTDY
in
5-day plot - Air Temperature
ATMP
°F
5-day plot - Water Temperature
WTMP
°F
5-day plot - Dew Point
DEWP
°F
5-day plot - Salinity
SAL
psu
5-day plot - Visibility
VIS
nmi
5-day plot - Tide (above MLLW)
TIDE
ft
2026-09-02 12:54 pm SE 5.1 7.0----30.06- 85.8 86.7----
2026-09-02 12:48 pm SE 5.1 7.0----30.06- 85.6 86.7----
2026-09-02 12:42 pm SE 5.1 8.0----30.06- 85.5 86.7----
2026-09-02 12:36 pm SE 5.1 7.0----30.06- 85.1 86.7----
2026-09-02 12:30 pmESE 5.1 7.0----30.06- 85.1 86.7----
2026-09-02 12:24 pmESE 5.1 7.0----30.06- 85.1 86.7----
2026-09-02 12:18 pmESE 5.1 6.0----30.07-- 86.5----
2026-09-02 12:12 pm SE 5.1 7.0----30.07-- 86.5----
2026-09-02 12:06 pm SE 5.1 7.0----30.07-- 86.5----
2026-09-02 12:00 pm SE 5.1 6.0----30.07+0.01 85.3 86.5----
2026-09-02 11:54 am SE 4.1 5.1----30.07- 85.1 86.5----
2026-09-02 11:48 am SE 4.1 4.1----30.07-- 86.5----
2026-09-02 11:42 am SE 5.1 6.0----30.07-- 86.5----
2026-09-02 11:36 amESE 4.1 5.1----30.07-- 86.5----
2026-09-02 11:30 amESE 4.1 6.0----30.07- 85.3 86.5----
2026-09-02 11:24 am E 5.1 7.0----30.07- 84.9 86.5----
2026-09-02 11:18 am E 5.1 7.0----30.07-- 86.4----
2026-09-02 11:12 am E 5.1 7.0----30.07-- 86.5----
2026-09-02 11:06 am E 5.1 6.0----30.07-- 86.4----
2026-09-02 11:00 amENE 5.1 7.0----30.07+0.01 83.5 86.4----
2026-09-02 10:54 am E 6.0 7.0----30.07- 83.3 86.4----
2026-09-02 10:48 am E 6.0 8.0----30.07- 83.3 86.4----
2026-09-02 10:42 am E 6.0 8.0----30.07- 83.1 86.4----
2026-09-02 10:36 amENE 7.0 8.9----30.06- 82.9 86.4----
2026-09-02 10:30 amENE 8.0 8.9----30.06- 82.6 86.5----
2026-09-02 10:24 amENE 6.0 8.0----30.06- 82.8 86.7----
2026-09-02 10:18 am E 6.0 8.0----30.06-- 86.9----
2026-09-02 10:12 am E 6.0 7.0----30.06-- 86.9----
2026-09-02 10:06 amENE 6.0 8.0----30.06-- 86.9----
2026-09-02 10:00 amENE 5.1 8.0----30.06+0.02- 86.9----
2026-09-02 09:54 amENE 5.1 7.0----30.06-- 86.9----
2026-09-02 09:48 am NE 7.0 8.0----30.06- 82.0 86.9----
2026-09-02 09:42 am NE 6.0 8.0----30.06- 81.9 86.9----
2026-09-02 09:36 am NE 7.0 8.0----30.06- 81.3 86.9----
2026-09-02 09:30 am NE 6.0 8.0----30.06- 81.3 87.1----
2026-09-02 09:24 am NE 7.0 8.9----30.06- 80.8 87.3----
2026-09-02 09:18 am NE 7.0 8.0----30.06-- 87.3----
2026-09-02 09:12 amENE 6.0 8.9----30.06-- 87.3----
2026-09-02 09:06 amENE 6.0 7.0----30.06-- 87.3----
2026-09-02 09:00 am NE 5.1 8.0----30.06+0.04 79.7 87.3----
2026-09-02 08:54 am NE 5.1 7.0----30.06- 79.2 87.4----
2026-09-02 08:48 amNNE 5.1 6.0----30.06- 78.6 87.4----
2026-09-02 08:42 amNNE 6.0 7.0----30.06- 78.1 87.4----
2026-09-02 08:36 amNNE 6.0 7.0----30.06- 77.5 87.4----
2026-09-02 08:30 amNNE 6.0 7.0----30.06- 77.5 87.4----
2026-09-02 08:24 amNNE 6.0 7.0----30.06- 77.4 87.4----
2026-09-02 08:18 amNNE 6.0 7.0----30.06-- 87.4----
2026-09-02 08:12 amNNE 5.1 7.0----30.06-- 87.4----
2026-09-02 08:06 amNNE 6.0 7.0----30.06-- 87.4----
2026-09-02 08:00 amNNE 6.0 7.0----30.06+0.04 77.4 87.4----
2026-09-02 07:54 amNNE 6.0 8.0----30.05- 77.2 87.4----
2026-09-02 07:48 amNNE 6.0 7.0----30.05-- 87.4----
2026-09-02 07:42 amNNE 5.1 8.0----30.05-- 87.4----
2026-09-02 07:36 amNNE 6.0 8.0----30.05-- 87.6----
2026-09-02 07:30 amNNE 7.0 8.0----30.05- 76.8 87.6----
2026-09-02 07:24 amNNE 6.0 8.0----30.05- 77.0 87.6----
2026-09-02 07:18 amNNE 7.0 8.0----30.05-- 87.6----
2026-09-02 07:12 amNNE 7.0 8.9----30.05-- 87.6----
2026-09-02 07:06 amNNE 7.0 8.9----30.05-- 87.6----
2026-09-02 07:00 amNNE 6.0 8.0----30.04+0.03 77.2 87.6----
2026-09-02 06:54 amNNE 7.0 8.0----30.04- 77.4 87.6----
2026-09-02 06:48 am N 5.1 6.0----30.04- 77.2 87.6----
2026-09-02 06:42 am N 5.1 7.0----30.03- 77.0 87.6----
2026-09-02 06:36 amNNE 5.1 7.0----30.03- 77.0 87.6----
2026-09-02 06:30 amNNE 6.0 8.0----30.03- 77.2 87.6----
2026-09-02 06:24 am N 6.0 6.0----30.03- 77.2 87.6----
2026-09-02 06:18 am N 5.1 6.0----30.03-- 87.6----
2026-09-02 06:12 am N 5.1 7.0----30.03-- 87.6----
2026-09-02 06:06 amNNE 6.0 7.0----30.03-- 87.6----
2026-09-02 06:00 amNNE 5.1 7.0----30.03+0.01 77.4 87.6----
2026-09-02 05:54 amNNE 6.0 7.0----30.03- 77.4 87.6----
2026-09-02 05:48 amNNE 6.0 7.0----30.03- 77.2 87.6----
2026-09-02 05:42 am N 5.1 6.0----30.03- 77.4 87.6----
2026-09-02 05:36 am N 4.1 6.0----30.02- 77.4 87.6----
2026-09-02 05:30 am N 5.1 6.0----30.02- 77.4 87.6----
2026-09-02 05:24 am N 4.1 6.0----30.02- 77.5 87.6----
2026-09-02 05:18 amNNE 6.0 7.0----30.02-- 87.4----
2026-09-02 05:12 amNNE 5.1 6.0----30.02-- 87.4----
2026-09-02 05:06 am N 5.1 6.0----30.02-- 87.4----
2026-09-02 05:00 am N 5.1 5.1----30.02+0.00 77.2 87.4----
2026-09-02 04:54 am N 5.1 6.0----30.01- 77.2 87.4----
2026-09-02 04:48 am N 5.1 6.0----30.01- 77.4 87.3----
2026-09-02 04:42 am N 5.1 6.0----30.01- 77.4 87.3----
2026-09-02 04:36 am N 5.1 6.0----30.01- 77.4 87.3----
2026-09-02 04:30 am N 5.1 6.0----30.01- 77.5 87.3----
2026-09-02 04:24 am N 2.9 4.1----30.01- 77.4 87.1----
2026-09-02 04:18 am N 4.1 5.1----30.01- 77.5 87.1----
2026-09-02 04:12 am N 2.9 5.1----30.01- 77.7 87.1----
2026-09-02 04:06 am N 2.9 4.1----30.01- 77.7 87.1----
2026-09-02 04:00 am N 2.9 4.1----30.01-0.02 77.7 87.1----
2026-09-02 03:54 am N 2.9 5.1----30.01- 77.7 86.9----
2026-09-02 03:48 am N 2.9 4.1----30.01-- 86.9----
2026-09-02 03:42 amNNW 2.9 5.1----30.01-- 86.9----
2026-09-02 03:36 am N 4.1 6.0----30.01-- 86.9----
2026-09-02 03:30 am N 5.1 5.1----30.01- 77.5 86.9----
2026-09-02 03:24 am N 2.9 4.1----30.01- 77.4 86.9----
2026-09-02 03:18 am N 2.9 5.1----30.01-- 87.1----
2026-09-02 03:12 am N 5.1 7.0----30.01-- 87.1----
2026-09-02 03:06 am N 5.1 8.0----30.01-- 87.1----
2026-09-02 03:00 am N 5.1 7.0----30.01-0.02 77.9 87.1----
2026-09-02 02:54 am N 6.0 7.0----30.01- 77.9 87.1----
2026-09-02 02:48 am N 4.1 5.1----30.01- 77.9 87.3----
2026-09-02 02:42 am N 2.9 4.1----30.01- 78.4 87.3----
2026-09-02 02:36 am N 4.1 5.1----30.01- 78.4 87.3----
2026-09-02 02:30 am N 4.1 5.1----30.01- 78.6 87.3----
2026-09-02 02:24 am N 4.1 5.1----30.01- 78.6 87.3----
2026-09-02 02:18 am N 2.9 5.1----30.01-- 87.4----
2026-09-02 02:12 am N 2.9 5.1----30.01-- 87.4----
2026-09-02 02:06 am N 4.1 5.1----30.02-- 87.4----
2026-09-02 02:00 am N 2.9 6.0----30.02-0.03 78.6 87.4----
2026-09-02 01:54 am N 5.1 6.0----30.02- 78.6 87.4----
2026-09-02 01:48 am N 5.1 6.0----30.02- 78.8 87.4----
2026-09-02 01:42 am N 5.1 6.0----30.03- 79.0 87.4----
2026-09-02 01:36 am N 5.1 6.0----30.03- 79.0 87.6----
2026-09-02 01:30 am N 2.9 4.1----30.02- 79.2 87.4----
2026-09-02 01:24 am N 1.9 4.1----30.03- 79.5 87.6----
2026-09-02 01:18 am N 4.1 5.1------- 87.8----
2026-09-02 01:12 am N 4.1 5.1------- 87.8----
2026-09-02 01:06 amNNE 4.1 5.1------- 87.8----
2026-09-02 01:00 amNNE 4.1 5.1----30.03-0.01 79.9 87.6----
2026-09-02 12:54 amNNE 4.1 5.1----30.03- 79.9 87.6----
2026-09-02 12:48 amNNE 4.1 5.1----30.03- 79.9 87.6----
2026-09-02 12:42 am N 5.1 5.1----30.03- 79.9 87.8----
2026-09-02 12:36 am N 4.1 5.1----30.03- 80.1 87.6----
2026-09-02 12:30 am N 4.1 6.0----30.03- 80.1 87.6----
2026-09-02 12:24 am N 4.1 6.0----30.04- 80.2 87.6----
2026-09-02 12:18 am N 5.1 6.0----30.04-- 87.8----
2026-09-02 12:12 am N 2.9 4.1----30.04-- 87.6----
2026-09-02 12:06 amNNE 5.1 5.1----30.04-- 87.6----
2026-09-02 12:00 am N 4.1 5.1----30.03+0.01 81.0 87.6----
2026-09-01 11:54 pmNNE 4.1 5.1----30.04- 81.1 87.6----
2026-09-01 11:48 pmNNE 4.1 5.1----30.04-- 87.6----
2026-09-01 11:42 pmNNE 4.1 5.1----30.04-- 87.6----
2026-09-01 11:36 pmNNE 4.1 5.1----30.04-- 87.8----
2026-09-01 11:30 pmNNE 4.1 5.1----30.04- 81.5 87.8----
2026-09-01 11:24 pmNNE 5.1 5.1----30.05- 81.7 87.8----
2026-09-01 11:18 pmNNE 4.1 5.1----30.04-- 87.8----
2026-09-01 11:12 pmNNE 4.1 4.1----30.04-- 87.8----
2026-09-01 11:06 pmNNE 4.1 5.1----30.05-- 87.8----
2026-09-01 11:00 pm NE 4.1 4.1----30.05+0.04 81.7 87.8----
2026-09-01 10:54 pmNNE 4.1 6.0----30.05- 82.0 87.8----
2026-09-01 10:48 pmNNE 5.1 6.0----30.05- 81.9 87.6----
2026-09-01 10:42 pmNNE 5.1 6.0----30.05- 81.9 87.6----
2026-09-01 10:36 pmNNE 5.1 6.0----30.05- 81.9 87.6----
2026-09-01 10:30 pm NE 5.1 6.0----30.05- 82.0 87.6----
2026-09-01 10:24 pm NE 2.9 4.1----30.05- 82.8 87.6----
2026-09-01 10:18 pm NE 4.1 5.1----30.05-- 87.6----
2026-09-01 10:12 pmNNE 4.1 4.1----30.05-- 87.6----
2026-09-01 10:06 pmENE 1.0 1.9----30.05-- 87.6----
2026-09-01 10:00 pm NE 1.9 4.1----30.04+0.03 82.9 87.6----
2026-09-01 09:54 pmNNE 1.9 2.9----30.04- 82.8 87.6----
2026-09-01 09:48 pm- 0.0 1.0----30.04- 83.1 87.6----
2026-09-01 09:42 pmWNW 1.0 1.9----30.03- 82.6 87.6----
2026-09-01 09:36 pm W 1.0 1.9----30.03- 82.0 87.6----
2026-09-01 09:30 pm W 1.0 1.9----30.03- 82.2 87.8----
2026-09-01 09:24 pm W 1.0 2.9----30.02- 82.2 87.8----
2026-09-01 09:18 pmWNW 1.9 1.9----30.02- 82.4 87.8----
2026-09-01 09:12 pmWNW 1.0 1.9----30.03- 82.4 87.8----
2026-09-01 09:06 pm- 0.0 1.0----30.03- 82.2 87.6----
2026-09-01 09:00 pmWSW 1.0 1.9----30.02+0.01 82.4 87.6----
2026-09-01 08:54 pm W 1.0 1.9----30.02- 82.2 87.6----
2026-09-01 08:48 pmWSW 1.9 1.9----30.02- 82.6 87.6----
2026-09-01 08:42 pmWSW 1.0 1.0----30.01- 82.6 87.6----
2026-09-01 08:36 pm- 0.0 1.0----30.01- 82.8 87.6----
2026-09-01 08:30 pmWNW 1.0 1.9----30.01- 82.8 87.6----
2026-09-01 08:24 pmWNW 1.0 1.9----30.01- 82.8 87.6----
2026-09-01 08:18 pm W 1.0 1.9----30.01-- 87.6----
2026-09-01 08:12 pm W 1.0 1.9----30.01-- 87.6----
2026-09-01 08:06 pmWSW 1.9 1.9----30.01-- 87.6----
2026-09-01 08:00 pm W 1.0 1.9----30.01+0.00 83.3 87.6----
2026-09-01 07:54 pm W 1.0 1.9----30.01- 83.5 87.4----
2026-09-01 07:48 pm W 1.0 1.9----30.01-- 87.4----
2026-09-01 07:42 pmWSW 1.0 1.9----30.01-- 87.4----
2026-09-01 07:36 pm W 1.9 1.9----30.01-- 87.1----
2026-09-01 07:30 pmWSW 1.9 2.9----30.01- 84.9 87.1----
2026-09-01 07:24 pmSSW 1.9 2.9----30.01- 85.6 87.1----
2026-09-01 07:18 pm SW 1.9 1.9----30.01-- 87.3----
2026-09-01 07:12 pm W 1.9 2.9----30.01-- 87.3----
2026-09-01 07:06 pm SW 1.9 4.1----30.01-- 87.3----
2026-09-01 07:00 pm SW 2.9 2.9----30.01+0.00 84.9 87.3----
2026-09-01 06:54 pmSSW 2.9 4.1----30.01- 84.7 86.7----
2026-09-01 06:48 pm SW 2.9 5.1----30.02- 84.9 86.4----
2026-09-01 06:42 pmSSW 2.9 5.1----30.02- 84.9 86.4----
2026-09-01 06:36 pmSSW 2.9 4.1----30.01- 84.9 86.4----
2026-09-01 06:30 pm S 4.1 4.1----30.01- 84.9 86.2----
2026-09-01 06:24 pm S 2.9 4.1----30.02- 84.9 86.2----
2026-09-01 06:18 pmSSW 2.9 5.1----30.01-- 86.2----
2026-09-01 06:12 pm S 4.1 6.0----30.01-- 86.0----
2026-09-01 06:06 pm S 2.9 5.1----30.01-- 86.0----
2026-09-01 06:00 pm S 4.1 5.1----30.01-0.03 84.6 86.0----
2026-09-01 05:54 pm S 4.1 4.1----30.01- 85.1 86.0----
2026-09-01 05:48 pm S 4.1 4.1----30.01- 84.9 86.0----
2026-09-01 05:42 pm S 4.1 6.0----30.01- 85.1 86.0----
2026-09-01 05:36 pmSSE 4.1 5.1----30.01- 84.9 86.0----
2026-09-01 05:30 pmSSE 4.1 6.0----30.01- 85.1 86.0----
2026-09-01 05:24 pmSSE 4.1 7.0----30.01- 85.1 86.0----
2026-09-01 05:18 pmSSE 5.1 6.0----30.01-- 86.0----
2026-09-01 05:12 pmSSE 4.1 8.0----30.01-- 86.0----
2026-09-01 05:06 pmSSE 2.9 6.0----30.01-- 86.0----
2026-09-01 05:00 pm S 4.1 6.0----30.01-0.04 84.2 86.2----
2026-09-01 04:54 pmSSE 5.1 7.0----30.01- 84.4 86.0----
2026-09-01 04:48 pmSSE 5.1 7.0----30.01- 84.0 86.2----
2026-09-01 04:42 pmSSE 6.0 7.0----30.01- 84.0 86.0----
2026-09-01 04:36 pmSSE 5.1 7.0----30.01- 83.8 86.0----
2026-09-01 04:30 pm SE 5.1 7.0----30.01- 83.7 86.0----
2026-09-01 04:24 pmSSE 6.0 8.9----30.01- 83.5 86.2----
2026-09-01 04:18 pmSSE 7.0 8.9----30.01-- 86.2----
2026-09-01 04:12 pmSSE 8.0 9.9----30.01-- 86.4----
2026-09-01 04:06 pmSSE 8.0 11.1----30.01-- 86.5----
2026-09-01 04:00 pmSSE 8.0 11.1----30.01-0.06 83.5 86.5----
2026-09-01 03:54 pmSSE 8.0 9.9----30.03- 83.5 86.5----
2026-09-01 03:48 pmSSE 8.9 11.1----30.03- 83.5 86.7----
2026-09-01 03:42 pmSSE 7.0 9.9----30.03- 83.5 86.7----
2026-09-01 03:36 pmSSE 8.0 11.1----30.03- 83.3 86.7----
2026-09-01 03:30 pm SE 8.9 11.1----30.03- 83.5 86.9----
2026-09-01 03:24 pm SE 7.0 12.0----30.03- 83.7 86.9----
2026-09-01 03:18 pm SE 8.0 11.1----30.03-- 86.9----
2026-09-01 03:12 pm SE 8.9 12.0----30.03-- 86.7----
2026-09-01 03:06 pmSSE 8.9 12.0----30.03-- 86.5----
2026-09-01 03:00 pmSSE 9.9 12.0----30.04-0.05 84.0 86.7----
2026-09-01 02:54 pmSSE 12.0 14.0----30.03- 83.8 86.9----
2026-09-01 02:48 pm SE 9.9 13.0----30.03- 84.2 86.9----
2026-09-01 02:42 pmSSE 12.0 14.0----30.04- 84.0 86.9----
2026-09-01 02:36 pm SE 8.9 13.0----30.04- 84.4 86.9----
2026-09-01 02:30 pm SE 8.9 12.0----30.04- 84.4 86.9----
2026-09-01 02:24 pm SE 8.0 13.0----30.04- 84.2 86.9----
2026-09-01 02:18 pm SE 8.9 12.0----30.04-- 86.9----
2026-09-01 02:12 pm SE 8.0 12.0----30.04-- 86.7----
2026-09-01 02:06 pm SE 8.9 12.0----30.05-- 86.7----
2026-09-01 02:00 pmESE 8.0 11.1----30.05-0.03 83.8 86.7----
2026-09-01 01:54 pm SE 8.0 11.1----30.05- 83.8 86.4----
2026-09-01 01:48 pmESE 8.9 12.0----30.05- 83.7 86.4----
2026-09-01 01:42 pmESE 8.0 9.9----30.05- 83.7 86.2----
2026-09-01 01:36 pmESE 6.0 8.9----30.05- 83.8 86.0----
2026-09-01 01:30 pmESE 6.0 8.9----30.06- 83.8 86.0----
2026-09-01 01:24 pmESE 5.1 7.0----30.06- 83.8 86.2----
2026-09-01 01:18 pmESE 5.1 8.9----30.07-- 86.2----
2026-09-01 01:12 pm SE 6.0 8.9----30.07-- 86.2----
2026-09-01 01:06 pmESE 6.0 8.0----30.07-- 86.2----
2026-09-01 01:00 pm SE 7.0 8.0----30.07+0.00 83.5 86.0----
2026-09-01 12:54 pmESE 6.0 8.0----30.07- 83.8 86.0----